Time;durP1;ratioP1;P1;durP2;ratioP2;P2;SDS_P1;SDS_P2;PMS_P1;PMS_P2;Temp;Humidity;BMP_temperature;BMP_pressure;BME280_temperature;BME280_humidity;BME280_pressure;Samples;Min_cycle;Max_cycle;Signal;HPM_P1;HPM_P2
2022/04/11 00:00:31;;;;;;;5.10;4.70;;;;;;;22.73;32.54;94545.66;6174260;28;102689;-80
2022/04/11 00:03:33;;;;;;;4.77;4.47;;;;;;;22.68;32.84;94543.94;6169892;28;103245;-79
2022/04/11 00:06:35;;;;;;;4.63;4.33;;;;;;;22.68;32.54;94550.06;6162179;28;103217;-80
2022/04/11 00:09:37;;;;;;;5.70;5.30;;;;;;;22.73;32.97;94561.66;6152716;28;103270;-80
2022/04/11 00:12:39;;;;;;;5.10;4.70;;;;;;;22.72;32.36;94549.44;6155422;28;102726;-78
2022/04/11 00:15:41;;;;;;;5.10;4.70;;;;;;;22.69;32.70;94556.19;6153229;28;102820;-77
2022/04/11 00:18:43;;;;;;;4.53;4.23;;;;;;;22.68;32.49;94566.09;6151273;28;102933;-77
2022/04/11 00:21:45;;;;;;;4.50;4.20;;;;;;;22.72;32.87;94568.09;6152514;28;102706;-79
2022/04/11 00:24:49;;;;;;;4.43;4.13;;;;;;;22.72;32.79;94568.09;6143808;28;102706;-78
2022/04/11 00:27:54;;;;;;;4.20;3.90;;;;;;;22.69;32.52;94578.31;6160849;28;103007;-77
2022/04/11 00:30:56;;;;;;;4.40;4.10;;;;;;;22.67;32.80;94572.50;6151891;28;102851;-78
2022/04/11 00:33:58;;;;;;;4.77;4.47;;;;;;;22.65;32.68;94577.38;6153932;28;102728;-78
2022/04/11 00:37:00;;;;;;;4.27;3.97;;;;;;;22.65;32.38;94572.03;6152546;28;102847;-77
2022/04/11 00:40:02;;;;;;;4.60;4.20;;;;;;;22.69;32.84;94583.66;6142629;28;103121;-79
2022/04/11 00:43:04;;;;;;;3.80;3.50;;;;;;;22.70;32.55;94595.09;6147546;28;102872;-77
2022/04/11 00:46:08;;;;;;;4.40;4.10;;;;;;;22.64;32.35;94597.13;6151065;28;103286;-76
2022/04/11 00:49:09;;;;;;;4.80;4.40;;;;;;;22.68;32.31;94608.75;6130846;28;102881;-78
2022/04/11 00:52:11;;;;;;;4.77;4.37;;;;;;;22.70;32.88;94613.78;6146214;28;102778;-77
2022/04/11 00:55:17;;;;;;;4.33;3.93;;;;;;;22.65;32.32;94612.03;6152822;28;102699;-77
2022/04/11 00:58:19;;;;;;;4.20;3.90;;;;;;;22.66;32.37;94618.94;6170787;28;102802;-79
2022/04/11 01:01:21;;;;;;;4.60;4.20;;;;;;;22.69;32.74;94623.66;6148652;28;102787;-79
2022/04/11 01:04:23;;;;;;;4.60;4.20;;;;;;;22.69;32.12;94626.31;6153676;28;103156;-77
2022/04/11 01:07:25;;;;;;;4.67;4.27;;;;;;;22.63;32.42;94630.25;6152321;28;102886;-77
2022/04/11 01:10:27;;;;;;;4.33;4.03;;;;;;;22.67;32.23;94635.72;6146922;28;102921;-78
2022/04/11 01:13:30;;;;;;;5.00;4.60;;;;;;;22.69;32.56;94642.31;6127446;28;102863;-78
2022/04/11 01:16:32;;;;;;;4.40;4.00;;;;;;;22.66;32.49;94647.50;6171266;28;102687;-76
2022/04/11 01:19:34;;;;;;;4.17;3.87;;;;;;;22.59;31.94;94640.00;6151589;28;103260;-76
2022/04/11 01:22:36;;;;;;;3.97;3.70;;;;;;;22.67;32.66;94665.06;6142707;28;103272;-77
2022/04/11 01:25:39;;;;;;;4.10;3.70;;;;;;;22.68;32.12;94672.78;6152092;28;103457;-78
2022/04/11 01:28:42;;;;;;;4.17;3.87;;;;;;;22.66;32.47;94672.28;6160750;28;102803;-78
2022/04/11 01:31:44;;;;;;;4.43;4.13;;;;;;;22.62;32.32;94668.69;6147880;28;102728;-77
2022/04/11 01:34:46;;;;;;;4.17;3.87;;;;;;;22.66;32.13;94674.16;6161192;28;102760;-76
2022/04/11 01:37:48;;;;;;;4.50;4.20;;;;;;;22.66;32.30;94680.28;6159563;28;102674;-78
2022/04/11 01:40:52;;;;;;;4.17;3.77;;;;;;;22.68;32.51;94677.28;6150714;28;102953;-79
2022/04/11 01:43:54;;;;;;;4.30;4.00;;;;;;;22.68;32.41;94686.09;6133146;28;102674;-79
2022/04/11 01:46:56;;;;;;;4.93;4.53;;;;;;;22.68;32.07;94688.78;6141842;28;103176;-77
2022/04/11 01:49:58;;;;;;;4.77;4.37;;;;;;;22.66;32.24;94698.94;6139931;28;103203;-78
2022/04/11 01:53:19;;;;;;;4.73;4.30;;;;;;;22.68;31.85;94694.09;6158136;28;102682;-79
2022/04/11 01:56:21;;;;;;;4.37;3.97;;;;;;;22.64;32.38;94701.16;6163036;28;103573;-78
2022/04/11 01:59:23;;;;;;;4.83;3.60;;;;;;;22.61;32.22;94703.69;6146530;28;102758;-78
2022/04/11 02:02:25;;;;;;;3.80;3.50;;;;;;;22.67;32.29;94713.06;6150076;28;102822;-77
2022/04/11 02:05:27;;;;;;;3.80;3.47;;;;;;;22.57;31.96;94708.09;6168822;28;102890;-77
2022/04/11 02:08:29;;;;;;;4.00;3.70;;;;;;;22.65;32.09;94728.59;6132210;28;103571;-77
2022/04/11 02:11:32;;;;;;;4.13;3.73;;;;;;;22.65;31.80;94740.06;6140083;28;103367;-76
2022/04/11 02:14:33;;;;;;;3.90;3.60;;;;;;;22.60;31.92;94737.56;6145546;28;102548;-79
2022/04/11 02:17:35;;;;;;;4.43;3.63;;;;;;;22.65;31.82;94758.72;6146995;28;103161;-76
2022/04/11 02:20:37;;;;;;;3.50;3.30;;;;;;;22.64;31.79;94759.84;6144064;28;102857;-79
2022/04/11 02:23:39;;;;;;;4.00;3.70;;;;;;;22.63;31.95;94760.16;6153912;28;103228;-76
2022/04/11 02:26:40;;;;;;;3.93;3.63;;;;;;;22.63;31.82;94766.25;6169255;28;102841;-77
2022/04/11 02:29:42;;;;;;;4.00;3.70;;;;;;;22.66;31.61;94778.19;6130892;28;103058;-79
2022/04/11 02:32:45;;;;;;;4.13;3.83;;;;;;;22.67;31.49;94777.88;6167130;28;102754;-79
2022/04/11 02:35:47;;;;;;;4.80;4.40;;;;;;;22.66;31.91;94781.63;6161822;28;102838;-76
2022/04/11 02:38:50;;;;;;;4.83;4.43;;;;;;;22.63;31.71;94787.59;6147408;28;102771;-78
2022/04/11 02:41:52;;;;;;;5.23;4.93;;;;;;;22.66;31.77;94788.84;6125988;28;104502;-76
2022/04/11 02:44:54;;;;;;;5.47;4.97;;;;;;;22.65;31.87;94785.41;6148818;28;102892;-76
2022/04/11 02:47:55;;;;;;;5.77;5.30;;;;;;;22.61;31.97;94789.81;6144014;28;103141;-76
2022/04/11 02:50:57;;;;;;;5.50;5.10;;;;;;;22.63;31.61;94792.16;6130700;28;103631;-76
2022/04/11 02:54:07;;;;;;;5.90;5.40;;;;;;;22.62;31.96;94796.72;6162432;28;103878;-77
2022/04/11 02:57:09;;;;;;;6.47;5.97;;;;;;;22.63;31.69;94802.81;6129345;28;103249;-77
2022/04/11 03:00:13;;;;;;;6.67;6.17;;;;;;;22.65;32.01;94813.97;6151437;28;102750;-78
2022/04/11 03:03:15;;;;;;;6.67;6.17;;;;;;;22.63;31.90;94822.28;6163222;28;103377;-77
2022/04/11 03:19:43;;;;;;;7.27;3.60;;;;;;;22.42;31.70;94834.63;6149082;28;103034;-77
2022/04/11 03:22:45;;;;;;;3.67;3.27;;;;;;;22.40;31.87;94839.50;6140761;28;102872;-77
2022/04/11 03:25:47;;;;;;;3.10;2.70;;;;;;;22.42;31.96;94845.31;6124172;28;103136;-78
2022/04/11 03:28:49;;;;;;;3.57;3.23;;;;;;;22.36;31.96;94841.22;6152277;28;103680;-77
2022/04/11 03:31:51;;;;;;;2.63;2.43;;;;;;;22.40;31.76;94855.50;6166086;28;102852;-76
2022/04/11 03:34:53;;;;;;;3.40;2.83;;;;;;;22.36;31.87;94852.69;6143342;28;103274;-77
2022/04/11 03:37:55;;;;;;;3.13;2.60;;;;;;;22.32;31.89;94853.59;6172499;28;103151;-75
2022/04/11 03:45:22;;;;;;;3.83;2.77;;;;;;;22.29;31.46;94873.66;6168884;28;103231;-76
2022/04/11 03:48:24;;;;;;;3.37;2.80;;;;;;;22.29;30.68;94879.00;6170355;28;102682;-78
2022/04/11 03:51:26;;;;;;;4.00;3.10;;;;;;;22.24;30.59;94870.38;6173956;28;102631;-77
2022/04/11 03:54:28;;;;;;;5.03;4.20;;;;;;;22.42;31.14;94882.63;6155657;28;102828;-76
2022/04/11 03:57:30;;;;;;;7.50;4.10;;;;;;;22.49;31.35;94880.28;6169964;28;104009;-76
2022/04/11 04:00:31;;;;;;;4.90;3.20;;;;;;;22.56;31.71;94888.63;6176209;28;102839;-76
2022/04/11 04:03:33;;;;;;;4.20;3.80;;;;;;;22.59;31.34;94893.34;6173915;28;102765;-76
2022/04/11 04:06:35;;;;;;;3.57;3.27;;;;;;;22.60;31.92;94886.13;6150079;28;103016;-76
2022/04/11 04:09:37;;;;;;;7.67;4.37;;;;;;;22.66;37.01;94892.88;6148409;28;103373;-77
2022/04/11 04:12:40;;;;;;;6.53;4.23;;;;;;;22.67;37.17;94897.91;6155505;28;104117;-76
2022/04/11 04:15:43;;;;;;;5.00;4.10;;;;;;;22.66;35.83;94899.00;6154562;28;103183;-77
2022/04/11 04:18:45;;;;;;;5.90;3.70;;;;;;;22.65;33.84;94899.31;6155050;28;104682;-76
2022/04/11 04:21:47;;;;;;;7.73;3.83;;;;;;;22.62;33.48;94897.28;6149260;28;102995;-79
2022/04/11 04:24:49;;;;;;;4.27;3.80;;;;;;;22.61;33.03;94896.50;6156352;28;102845;-76
2022/04/11 04:27:51;;;;;;;7.50;4.10;;;;;;;22.54;32.53;94890.03;6153100;28;102838;-77
2022/04/11 04:30:53;;;;;;;4.40;4.00;;;;;;;22.71;32.80;94914.09;6166325;28;102685;-76
2022/04/11 04:33:55;;;;;;;4.77;4.37;;;;;;;22.72;32.80;94920.19;6172036;28;102598;-78
2022/04/11 04:36:58;;;;;;;5.70;5.20;;;;;;;22.72;32.57;94925.53;6171379;28;103749;-77
2022/04/11 04:40:00;;;;;;;7.50;4.90;;;;;;;22.73;32.43;94935.91;6153850;28;102718;-76
2022/04/11 04:43:04;;;;;;;7.57;6.23;;;;;;;22.73;32.13;94941.22;6150873;28;102717;-76
2022/04/11 04:46:06;;;;;;;8.67;7.60;;;;;;;22.72;32.29;94949.53;6153382;28;102615;-77
2022/04/11 04:49:08;;;;;;;8.37;7.57;;;;;;;22.64;32.10;94948.41;6152929;28;103014;-78
2022/04/11 04:52:10;;;;;;;7.77;7.07;;;;;;;22.56;32.72;94947.28;6149461;28;102829;-78
2022/04/11 04:55:12;;;;;;;7.30;6.70;;;;;;;22.53;32.49;94953.25;6152950;28;103053;-78
2022/04/11 04:58:13;;;;;;;6.73;6.13;;;;;;;22.60;32.28;94968.81;6136583;28;102694;-78
2022/04/11 05:01:15;;;;;;;7.00;6.33;;;;;;;22.60;32.44;94972.25;6132199;28;102613;-77
2022/04/11 05:04:18;;;;;;;7.00;6.00;;;;;;;22.63;32.17;94986.84;6126978;28;102923;-77
2022/04/11 05:07:20;;;;;;;7.00;6.20;;;;;;;22.59;32.32;94976.03;6114418;28;102683;-77
2022/04/11 05:10:22;;;;;;;6.60;6.00;;;;;;;22.60;32.16;94980.25;6141481;28;102764;-77
2022/04/11 05:13:24;;;;;;;7.60;6.80;;;;;;;22.62;32.17;94987.97;6154170;28;103079;-78
2022/04/11 05:16:26;;;;;;;6.40;5.90;;;;;;;22.58;31.64;94989.69;6150146;28;102975;-79
2022/04/11 05:19:28;;;;;;;7.30;6.63;;;;;;;22.62;31.72;94998.63;6154497;28;102638;-78
2022/04/11 05:22:30;;;;;;;6.73;6.03;;;;;;;22.62;31.83;95002.06;6152944;28;103553;-77
2022/04/11 05:25:32;;;;;;;6.10;5.53;;;;;;;22.60;31.62;94990.94;6136002;28;103027;-77
2022/04/11 05:28:34;;;;;;;7.10;6.50;;;;;;;22.60;31.69;94995.47;6129485;28;102672;-78
2022/04/11 05:31:36;;;;;;;6.97;5.83;;;;;;;22.61;31.81;94991.72;6157162;22;102655;-77
2022/04/11 05:34:38;;;;;;;6.27;5.77;;;;;;;22.62;31.80;95001.28;6104940;28;102673;-79
2022/04/11 05:37:40;;;;;;;6.13;5.53;;;;;;;22.60;31.91;95004.28;6118118;28;102698;-78
2022/04/11 05:40:46;;;;;;;6.03;5.53;;;;;;;22.63;31.61;95008.97;6121097;28;103449;-78
2022/04/11 05:43:53;;;;;;;6.27;5.67;;;;;;;22.63;31.81;95010.88;6120760;28;102713;-79
2022/04/11 05:46:55;;;;;;;5.93;5.47;;;;;;;22.59;31.56;95010.69;6122241;28;102643;-79
2022/04/11 05:49:57;;;;;;;5.27;4.77;;;;;;;22.61;31.66;95013.84;6119560;28;102672;-77
2022/04/11 05:53:00;;;;;;;5.50;5.07;;;;;;;22.53;31.67;94998.59;6122853;28;102523;-79
2022/04/11 05:56:01;;;;;;;5.70;5.20;;;;;;;22.64;31.41;95015.88;6129393;28;103029;-78
2022/04/11 05:59:04;;;;;;;5.83;5.37;;;;;;;22.63;31.59;95029.53;6133787;28;103010;-80
2022/04/11 06:02:05;;;;;;;6.23;5.40;;;;;;;22.60;31.36;95022.94;6120672;28;102723;-77
2022/04/11 06:05:09;;;;;;;8.63;7.83;;;;;;;22.57;31.22;95020.91;6127658;28;103324;-77
2022/04/11 06:08:11;;;;;;;6.87;6.37;;;;;;;22.50;31.39;95015.19;6132644;28;102723;-76
2022/04/11 06:11:13;;;;;;;8.60;7.80;;;;;;;22.50;31.77;95031.19;6128167;28;104311;-79
2022/04/11 06:14:15;;;;;;;10.03;9.10;;;;;;;22.47;31.83;95015.81;6132142;28;103096;-77
2022/04/11 06:17:17;;;;;;;10.03;9.13;;;;;;;22.48;31.73;95025.38;6148340;28;102715;-78
2022/04/11 06:20:18;;;;;;;9.83;9.03;;;;;;;22.47;31.70;95013.13;6144674;28;102767;-78
2022/04/11 06:23:20;;;;;;;9.57;8.77;;;;;;;22.45;31.49;95015.31;6148429;28;102602;-80
2022/04/11 06:26:22;;;;;;;9.70;8.90;;;;;;;22.49;31.56;95023.50;6148991;28;102698;-80
2022/04/11 06:29:24;;;;;;;9.67;8.90;;;;;;;22.47;31.29;95026.47;6130573;28;103115;-79
2022/04/11 06:32:27;;;;;;;9.97;9.17;;;;;;;22.28;31.71;95010.72;6128322;28;102850;-80
2022/04/11 06:35:29;;;;;;;10.47;9.57;;;;;;;22.55;31.05;95024.94;6130921;28;102833;-78
2022/04/11 06:38:31;;;;;;;10.27;8.93;;;;;;;22.59;30.83;95044.59;6133445;28;102691;-78
2022/04/11 06:41:33;;;;;;;9.67;8.87;;;;;;;22.60;31.49;95030.94;6154842;28;102646;-78
2022/04/11 06:44:37;;;;;;;9.53;8.60;;;;;;;22.65;31.54;95041.47;6148754;28;102856;-77
2022/04/11 06:47:39;;;;;;;9.83;9.03;;;;;;;22.67;30.83;95044.59;6134681;28;102694;-77
2022/04/11 06:50:42;;;;;;;9.53;8.73;;;;;;;22.65;31.02;95038.78;6153057;28;102569;-77
2022/04/11 06:53:44;;;;;;;8.60;7.83;;;;;;;22.68;31.04;95054.22;6130116;28;103556;-76
2022/04/11 06:56:46;;;;;;;9.10;8.40;;;;;;;22.75;31.26;95052.97;6135035;28;103190;-78
2022/04/11 06:59:48;;;;;;;8.97;8.17;;;;;;;22.82;31.05;95048.72;6131238;28;102839;-79
2022/04/11 07:02:50;;;;;;;8.43;7.70;;;;;;;23.03;30.58;95061.53;6132961;28;102775;-77
2022/04/11 07:05:52;;;;;;;8.60;7.90;;;;;;;23.16;30.54;95063.25;6146924;28;102661;-75
2022/04/11 07:08:54;;;;;;;8.37;7.77;;;;;;;23.23;30.81;95067.03;6132897;28;102721;-77
2022/04/11 07:11:56;;;;;;;8.90;8.20;;;;;;;23.29;30.77;95065.81;6151798;28;102653;-79
2022/04/11 07:15:02;;;;;;;7.83;7.20;;;;;;;23.33;30.52;95076.66;6151454;28;102696;-75
2022/04/11 07:18:04;;;;;;;7.50;6.90;;;;;;;23.29;30.93;95071.16;6115071;28;102829;-77
2022/04/11 07:21:06;;;;;;;7.60;7.00;;;;;;;23.30;30.45;95066.59;6134957;28;103295;-75
2022/04/11 07:24:08;;;;;;;7.27;6.77;;;;;;;23.39;30.54;95063.97;6133943;28;102676;-79
2022/04/11 07:27:10;;;;;;;8.93;8.10;;;;;;;23.53;30.54;95068.06;6148016;28;102694;-79
2022/04/11 07:30:12;;;;;;;7.10;6.57;;;;;;;23.53;30.42;95072.59;6125456;28;102839;-79
2022/04/11 07:33:14;;;;;;;7.70;7.20;;;;;;;23.59;30.29;95074.00;6143326;28;102869;-79
2022/04/11 07:36:16;;;;;;;7.53;6.93;;;;;;;23.63;30.43;95068.81;6143465;28;103189;-77
2022/04/11 07:39:19;;;;;;;7.80;7.10;;;;;;;23.57;30.20;95060.97;6121291;28;102733;-79
2022/04/11 07:42:21;;;;;;;7.27;6.67;;;;;;;23.72;30.30;95083.75;6124167;28;102745;-77
2022/04/11 07:45:23;;;;;;;6.73;6.23;;;;;;;23.80;30.38;95090.97;6143261;28;102634;-78
2022/04/11 07:48:27;;;;;;;6.80;6.30;;;;;;;23.88;30.14;95095.53;6122354;28;104637;-79
2022/04/11 07:51:29;;;;;;;7.20;6.70;;;;;;;23.94;30.20;95095.38;6125137;28;103496;-78
2022/04/11 07:54:31;;;;;;;6.80;6.23;;;;;;;23.88;30.41;95090.19;6125125;28;103499;-78
2022/04/11 07:57:33;;;;;;;6.80;6.30;;;;;;;23.97;30.27;95100.09;6141864;28;102703;-78
2022/04/11 08:00:53;;;;;;;6.67;6.13;;;;;;;23.96;30.38;95104.66;6138019;28;103837;-78
2022/04/11 08:03:55;;;;;;;6.77;6.17;;;;;;;24.02;30.35;95110.63;6141132;28;102716;-77
2022/04/11 08:06:57;;;;;;;7.33;6.53;;;;;;;23.93;30.17;95104.50;6141794;28;102695;-77
2022/04/11 08:10:03;;;;;;;6.47;5.93;;;;;;;23.95;30.29;95115.66;6113449;28;102785;-79
2022/04/11 08:13:05;;;;;;;7.17;6.47;;;;;;;23.93;30.33;95117.88;6098772;28;102738;-77
2022/04/11 08:16:08;;;;;;;7.03;6.43;;;;;;;23.95;29.98;95110.31;6100637;28;102732;-77
2022/04/11 08:19:09;;;;;;;6.50;6.00;;;;;;;23.99;30.34;95119.25;6100353;28;102765;-77
2022/04/11 08:22:12;;;;;;;6.20;5.70;;;;;;;24.01;30.18;95117.09;6097022;28;102706;-77
2022/04/11 08:25:14;;;;;;;5.60;5.20;;;;;;;24.04;30.06;95119.94;6100169;28;102718;-77
2022/04/11 08:28:16;;;;;;;6.13;5.63;;;;;;;24.02;30.32;95129.34;6100359;28;102686;-78
2022/04/11 08:31:18;;;;;;;6.30;5.80;;;;;;;23.97;30.28;95116.91;6115853;28;102755;-77
2022/04/11 08:34:20;;;;;;;5.23;4.83;;;;;;;24.02;30.41;95143.50;6096093;28;102716;-77
2022/04/11 08:37:24;;;;;;;5.60;5.20;;;;;;;24.06;30.08;95146.34;6099736;28;102749;-80
2022/04/11 08:40:26;;;;;;;6.00;5.50;;;;;;;24.00;30.46;95136.91;6099349;28;102790;-78
2022/04/11 08:43:30;;;;;;;5.73;5.33;;;;;;;23.92;30.47;95127.00;6096629;28;103642;-78
2022/04/11 08:46:34;;;;;;;5.30;4.90;;;;;;;24.02;30.27;95142.72;6118729;28;102696;-78
2022/04/11 08:49:37;;;;;;;5.47;5.07;;;;;;;23.93;30.33;95139.25;6099612;28;102680;-79
2022/04/11 08:52:40;;;;;;;5.30;4.90;;;;;;;23.92;30.23;95137.69;6117239;28;102664;-77
2022/04/11 08:55:41;;;;;;;5.30;4.87;;;;;;;23.97;30.41;95132.94;6095020;28;102739;-76
2022/04/11 08:58:43;;;;;;;5.30;4.80;;;;;;;23.84;30.44;95115.97;6099195;28;102714;-75
2022/04/11 09:01:45;;;;;;;5.30;4.90;;;;;;;23.78;30.38;95141.28;6098868;28;102695;-78
2022/04/11 09:04:56;;;;;;;5.53;4.93;;;;;;;23.72;30.82;95141.75;6099124;28;102711;-78
2022/04/11 09:07:59;;;;;;;4.93;4.60;;;;;;;23.69;30.44;95147.72;6095646;28;102834;-78
2022/04/11 09:11:01;;;;;;;5.20;4.80;;;;;;;23.65;30.75;95152.13;6100127;28;102755;-78
2022/04/11 09:14:05;;;;;;;5.33;4.93;;;;;;;23.57;30.67;95143.00;6116980;28;102669;-78
2022/04/11 09:17:09;;;;;;;4.90;4.60;;;;;;;23.44;31.05;95136.69;6096222;28;103350;-80
2022/04/11 09:20:13;;;;;;;5.23;4.83;;;;;;;23.50;30.77;95156.81;6116695;28;102918;-78
2022/04/11 09:23:21;;;;;;;5.20;4.80;;;;;;;23.47;30.60;95148.63;6099423;28;102624;-77
2022/04/11 09:26:24;;;;;;;4.93;4.63;;;;;;;23.43;31.20;95159.16;6083857;28;103071;-79
2022/04/11 09:29:30;;;;;;;5.10;4.70;;;;;;;23.42;30.63;95165.59;6095959;28;102893;-77
2022/04/11 09:32:32;;;;;;;5.17;4.80;;;;;;;23.39;30.93;95162.75;6098478;28;102830;-76
2022/04/11 09:35:39;;;;;;;4.90;4.50;;;;;;;23.34;31.11;95150.31;6098918;28;102745;-78
2022/04/11 09:38:41;;;;;;;4.83;4.47;;;;;;;23.31;30.80;95161.63;6095361;28;102918;-77
2022/04/11 09:41:45;;;;;;;4.90;4.50;;;;;;;23.34;30.67;95162.88;6119635;28;102976;-80
2022/04/11 09:44:47;;;;;;;4.53;4.13;;;;;;;23.26;31.15;95151.06;6123544;28;102956;-81
2022/04/11 09:48:09;;;;;;;5.70;5.20;;;;;;;23.24;30.83;95151.38;6124142;28;102889;-76
2022/04/11 09:51:13;;;;;;;4.80;4.50;;;;;;;23.23;30.93;95154.38;6120831;28;103734;-78
2022/04/11 09:54:25;;;;;;;4.90;4.50;;;;;;;23.21;31.15;95154.69;6125437;28;102709;-77
2022/04/11 09:57:31;;;;;;;4.93;4.53;;;;;;;23.18;30.86;95149.94;6123899;28;102703;-78
2022/04/11 10:00:37;;;;;;;4.70;4.40;;;;;;;23.19;31.66;95151.53;6120178;28;102599;-77
2022/04/11 10:03:40;;;;;;;5.20;4.80;;;;;;;23.18;31.26;95144.59;6122565;28;102662;-77
2022/04/11 10:06:43;;;;;;;7.97;7.33;;;;;;;23.13;31.02;95144.75;6121347;28;102836;-76
2022/04/11 10:09:45;;;;;;;11.00;10.10;;;;;;;23.00;30.78;95133.06;6120564;28;102713;-77
2022/04/11 10:12:47;;;;;;;9.60;8.83;;;;;;;22.96;30.38;95145.47;6113856;28;102951;-76
2022/04/11 10:15:50;;;;;;;10.90;10.00;;;;;;;22.96;30.18;95137.47;6122200;28;102761;-78
2022/04/11 10:19:00;;;;;;;8.33;7.63;;;;;;;22.94;30.47;95136.22;6124631;28;102904;-79
2022/04/11 10:22:04;;;;;;;8.57;7.87;;;;;;;23.01;30.44;95147.22;6122906;28;102629;-77
2022/04/11 10:25:07;;;;;;;8.27;7.53;;;;;;;23.01;30.06;95142.66;6122155;28;102902;-76
2022/04/11 10:28:23;;;;;;;8.13;7.53;;;;;;;23.04;30.01;95143.94;6124056;28;103176;-77
2022/04/11 10:31:35;;;;;;;7.63;7.03;;;;;;;23.07;29.94;95151.34;6122502;28;103334;-77
2022/04/11 10:34:49;;;;;;;8.07;7.37;;;;;;;23.08;30.14;95160.91;6118278;28;104027;-76
2022/04/11 10:37:51;;;;;;;7.63;7.00;;;;;;;23.09;30.19;95151.03;6123926;28;103046;-76
2022/04/11 10:40:53;;;;;;;8.10;7.40;;;;;;;23.14;29.95;95148.19;6123369;28;102923;-75
2022/04/11 10:44:35;;;;;;;7.80;7.10;;;;;;;23.15;30.09;95155.91;6118671;28;102676;-77
2022/04/11 10:47:46;;;;;;;7.20;6.60;;;;;;;23.16;29.99;95138.78;6123450;28;102847;-78
2022/04/11 10:50:48;;;;;;;7.77;7.17;;;;;;;23.16;30.14;95149.47;6121727;28;102800;-77
2022/04/11 10:54:19;;;;;;;8.30;7.60;;;;;;;23.15;30.04;95139.88;6122170;28;102950;-77
2022/04/11 10:57:46;;;;;;;7.60;6.93;;;;;;;23.13;29.93;95144.75;6118411;28;102794;-78
2022/04/11 11:00:48;;;;;;;7.53;6.93;;;;;;;23.10;30.32;95137.38;6123640;28;102641;-76
2022/04/11 11:04:00;;;;;;;7.23;6.63;;;;;;;23.07;30.36;95137.97;6122531;28;102696;-76
2022/04/11 11:07:26;;;;;;;7.03;6.43;;;;;;;23.10;30.63;95141.91;6118688;28;102833;-76
2022/04/11 11:10:42;;;;;;;7.67;7.07;;;;;;;23.08;30.05;95150.22;6115543;28;103191;-77
2022/04/11 11:13:44;;;;;;;7.20;6.60;;;;;;;23.13;29.75;95151.97;6122004;28;102809;-78
2022/04/11 11:16:58;;;;;;;7.20;6.60;;;;;;;23.13;30.08;95144.75;6122930;28;103098;-77
2022/04/11 11:20:05;;;;;;;6.70;6.20;;;;;;;23.14;30.30;95149.00;6116362;28;103546;-77
2022/04/11 11:23:18;;;;;;;6.60;6.10;;;;;;;23.09;30.03;95143.81;6121611;28;102656;-77
2022/04/11 11:26:20;;;;;;;6.43;5.93;;;;;;;23.07;30.64;95137.97;6118093;28;102750;-78
2022/04/11 11:29:29;;;;;;;7.00;6.50;;;;;;;23.14;30.42;95145.53;6112366;28;102701;-77
2022/04/11 11:32:31;;;;;;;7.07;6.57;;;;;;;23.11;30.42;95148.81;6125848;28;103038;-77
2022/04/11 11:35:32;;;;;;;7.00;6.50;;;;;;;23.10;30.44;95141.91;6125136;28;102711;-76
2022/04/11 11:38:34;;;;;;;7.10;6.60;;;;;;;23.07;30.72;95143.31;6123260;28;102773;-78
2022/04/11 11:41:37;;;;;;;8.40;7.63;;;;;;;23.07;30.22;95143.31;6119972;28;102692;-78
2022/04/11 11:44:45;;;;;;;7.00;6.50;;;;;;;23.05;30.60;95140.19;6142871;28;102659;-79
2022/04/11 11:47:51;;;;;;;7.00;6.40;;;;;;;23.00;30.67;95146.44;6141523;28;102751;-78
2022/04/11 11:50:57;;;;;;;7.53;6.97;;;;;;;23.05;30.66;95156.19;6138429;28;102934;-79
2022/04/11 11:53:59;;;;;;;7.47;6.90;;;;;;;23.06;30.64;95155.09;6141654;28;102586;-78
2022/04/11 11:57:24;;;;;;;7.37;6.80;;;;;;;23.03;30.55;95145.03;6125218;28;102744;-78
2022/04/11 12:00:33;;;;;;;6.70;6.20;;;;;;;23.07;30.29;95158.56;6125783;28;103170;-79
2022/04/11 12:06:56;;;;;;;7.30;6.70;;;;;;;23.05;30.80;95142.06;6139587;28;102965;-78
2022/04/11 12:09:58;;;;;;;6.70;6.20;;;;;;;23.04;30.47;95143.16;6123161;28;102741;-78
2022/04/11 12:13:00;;;;;;;6.57;6.07;;;;;;;23.05;31.01;95160.75;6137200;28;103238;-77
2022/04/11 12:16:08;;;;;;;7.00;6.50;;;;;;;23.04;30.68;95151.16;6126140;28;102662;-79
2022/04/11 12:19:09;;;;;;;6.60;6.10;;;;;;;23.00;30.88;95153.66;6124283;28;102643;-78
2022/04/11 12:22:15;;;;;;;7.03;6.53;;;;;;;23.04;30.89;95159.19;6125055;28;102699;-78
2022/04/11 12:25:28;;;;;;;6.90;6.40;;;;;;;23.03;30.85;95160.28;6138152;28;103528;-77
2022/04/11 12:28:34;;;;;;;6.53;6.13;;;;;;;23.03;30.51;95155.72;6125381;28;102711;-79
2022/04/11 12:31:38;;;;;;;6.70;6.20;;;;;;;23.04;30.34;95140.50;6124908;28;102700;-79
2022/04/11 12:34:44;;;;;;;6.53;6.03;;;;;;;23.05;30.55;95147.41;6119765;28;102703;-76
2022/04/11 12:37:49;;;;;;;6.83;6.33;;;;;;;23.05;30.81;95145.53;6123676;28;103110;-77
2022/04/11 12:40:51;;;;;;;6.60;6.10;;;;;;;23.06;30.62;95140.97;6122633;28;102735;-78
2022/04/11 12:44:10;;;;;;;7.03;6.50;;;;;;;23.04;30.46;95132.50;6140070;28;103114;-77
2022/04/11 12:47:12;;;;;;;6.73;6.20;;;;;;;23.04;30.81;95135.94;6120095;28;102718;-77
2022/04/11 12:50:22;;;;;;;6.77;6.17;;;;;;;23.04;30.97;95133.28;6140319;28;102663;-78
2022/04/11 12:53:30;;;;;;;6.57;6.13;;;;;;;22.98;30.50;95124.59;6140496;28;102709;-76
2022/04/11 12:56:41;;;;;;;6.37;5.87;;;;;;;23.06;30.62;95131.06;6122253;28;102735;-78
2022/04/11 12:59:43;;;;;;;6.60;6.10;;;;;;;23.04;30.92;95143.16;6116359;28;103266;-78
2022/04/11 13:02:45;;;;;;;6.57;6.07;;;;;;;23.05;30.39;95148.19;6118829;28;102715;-78
2022/04/11 13:05:48;;;;;;;6.20;5.80;;;;;;;23.04;30.85;95159.19;6116719;28;102757;-77
2022/04/11 13:08:49;;;;;;;6.37;5.93;;;;;;;23.00;30.78;95148.31;6115166;28;104081;-76
2022/04/11 13:11:53;;;;;;;6.70;6.20;;;;;;;23.03;30.86;95160.28;6114891;28;102954;-76
2022/04/11 13:15:09;;;;;;;7.10;6.60;;;;;;;22.98;30.85;95147.84;6115750;28;102744;-77
2022/04/11 13:18:26;;;;;;;6.50;6.00;;;;;;;22.98;30.46;95150.50;6114505;28;103337;-77
2022/04/11 13:21:28;;;;;;;6.43;5.93;;;;;;;22.94;30.69;95158.34;6114280;28;102978;-78
2022/04/11 13:24:31;;;;;;;6.00;5.60;;;;;;;22.98;31.05;95153.16;6113889;28;102807;-78
2022/04/11 13:27:33;;;;;;;6.70;6.20;;;;;;;22.95;30.98;95146.56;6114607;28;102769;-78
2022/04/11 13:30:35;;;;;;;6.20;5.80;;;;;;;22.96;30.97;95147.34;6110730;28;103318;-77
2022/04/11 13:33:37;;;;;;;5.97;5.57;;;;;;;22.85;30.86;95135.38;6114121;28;102706;-78
2022/04/11 13:36:39;;;;;;;6.47;6.00;;;;;;;22.94;30.61;95149.56;6115978;28;102712;-77
2022/04/11 13:39:41;;;;;;;6.53;6.03;;;;;;;22.91;30.94;95155.50;6115397;28;102724;-77
2022/04/11 13:42:43;;;;;;;6.03;5.53;;;;;;;22.94;30.60;95155.66;6109688;28;103161;-77
2022/04/11 13:46:05;;;;;;;6.00;5.57;;;;;;;22.97;30.80;95170.28;6115475;28;102637;-78
2022/04/11 13:49:07;;;;;;;6.47;6.00;;;;;;;22.96;31.01;95158.03;6112198;28;102738;-78
2022/04/11 13:52:10;;;;;;;6.10;5.70;;;;;;;22.97;30.63;95151.59;6111808;28;102646;-77
2022/04/11 13:55:12;;;;;;;6.33;5.90;;;;;;;22.96;31.11;95156.16;6115775;28;102680;-79
2022/04/11 13:58:14;;;;;;;6.53;6.03;;;;;;;22.76;30.39;95131.91;6113728;28;102663;-77
2022/04/11 14:01:16;;;;;;;6.23;5.73;;;;;;;22.94;31.05;95158.34;6113877;28;102770;-76
2022/04/11 14:04:22;;;;;;;5.50;5.10;;;;;;;22.95;30.52;95153.78;6112044;28;103013;-76
2022/04/11 14:07:24;;;;;;;5.93;5.43;;;;;;;22.93;30.69;95150.66;6119693;28;102692;-77
2022/04/11 14:10:26;;;;;;;5.90;5.50;;;;;;;22.86;30.67;95148.44;6122016;28;102785;-76
2022/04/11 14:13:30;;;;;;;7.03;6.43;;;;;;;22.94;30.63;95155.66;6119241;28;102775;-76
2022/04/11 14:16:38;;;;;;;6.40;5.93;;;;;;;22.94;30.98;95163.69;6138260;28;102947;-77
2022/04/11 14:19:39;;;;;;;5.73;5.33;;;;;;;22.94;30.82;95154.88;6139568;28;102686;-77
2022/04/11 14:22:41;;;;;;;6.40;5.90;;;;;;;22.89;30.23;95141.69;6139716;28;102764;-78
2022/04/11 14:25:43;;;;;;;5.37;4.97;;;;;;;22.94;30.70;95155.66;6135369;28;102906;-75
2022/04/11 14:28:45;;;;;;;6.00;5.53;;;;;;;22.86;30.37;95129.75;6141639;28;102750;-79
2022/04/11 14:31:47;;;;;;;5.50;5.10;;;;;;;22.95;30.43;95151.13;6113952;28;104535;-77
2022/04/11 14:34:49;;;;;;;5.97;5.57;;;;;;;22.92;30.70;95141.06;6097931;28;102729;-76